sensor_id;sensor_type;location;lat;lon;timestamp;P1;durP1;ratioP1;P2;durP2;ratioP2
15876;SDS011;8037;51.666;7.834;2022-11-21T00:00:20;3.90;;;3.53;;
15876;SDS011;8037;51.666;7.834;2022-11-21T00:02:47;5.40;;;3.07;;
15876;SDS011;8037;51.666;7.834;2022-11-21T00:05:13;5.07;;;3.27;;
15876;SDS011;8037;51.666;7.834;2022-11-21T00:07:38;6.60;;;4.00;;
15876;SDS011;8037;51.666;7.834;2022-11-21T00:10:04;4.10;;;3.90;;
15876;SDS011;8037;51.666;7.834;2022-11-21T00:12:30;3.50;;;3.20;;
15876;SDS011;8037;51.666;7.834;2022-11-21T00:14:56;4.30;;;3.80;;
15876;SDS011;8037;51.666;7.834;2022-11-21T00:17:21;8.13;;;4.03;;
15876;SDS011;8037;51.666;7.834;2022-11-21T00:19:47;5.60;;;3.70;;
15876;SDS011;8037;51.666;7.834;2022-11-21T00:22:13;4.00;;;3.30;;
15876;SDS011;8037;51.666;7.834;2022-11-21T00:24:39;6.57;;;3.33;;
15876;SDS011;8037;51.666;7.834;2022-11-21T00:27:05;5.53;;;3.07;;
15876;SDS011;8037;51.666;7.834;2022-11-21T00:29:31;5.60;;;3.97;;
15876;SDS011;8037;51.666;7.834;2022-11-21T00:31:57;4.07;;;3.73;;
15876;SDS011;8037;51.666;7.834;2022-11-21T00:34:23;4.57;;;3.87;;
15876;SDS011;8037;51.666;7.834;2022-11-21T00:36:48;4.30;;;3.70;;
15876;SDS011;8037;51.666;7.834;2022-11-21T00:39:14;3.53;;;3.30;;
15876;SDS011;8037;51.666;7.834;2022-11-21T00:41:40;3.47;;;3.10;;
15876;SDS011;8037;51.666;7.834;2022-11-21T00:44:06;5.97;;;3.40;;
15876;SDS011;8037;51.666;7.834;2022-11-21T00:46:31;3.87;;;2.90;;
15876;SDS011;8037;51.666;7.834;2022-11-21T00:48:57;4.40;;;4.10;;
15876;SDS011;8037;51.666;7.834;2022-11-21T00:51:23;2.93;;;2.73;;
15876;SDS011;8037;51.666;7.834;2022-11-21T00:53:49;6.80;;;4.83;;
15876;SDS011;8037;51.666;7.834;2022-11-21T00:56:15;5.00;;;3.40;;
15876;SDS011;8037;51.666;7.834;2022-11-21T00:58:41;3.30;;;3.00;;
15876;SDS011;8037;51.666;7.834;2022-11-21T01:01:14;5.33;;;4.03;;
15876;SDS011;8037;51.666;7.834;2022-11-21T01:03:40;3.53;;;3.33;;
15876;SDS011;8037;51.666;7.834;2022-11-21T01:06:07;4.70;;;4.27;;
15876;SDS011;8037;51.666;7.834;2022-11-21T01:08:35;5.00;;;4.20;;
15876;SDS011;8037;51.666;7.834;2022-11-21T01:11:03;4.40;;;4.00;;
15876;SDS011;8037;51.666;7.834;2022-11-21T01:13:30;6.57;;;4.23;;
15876;SDS011;8037;51.666;7.834;2022-11-21T01:15:56;6.93;;;4.93;;
15876;SDS011;8037;51.666;7.834;2022-11-21T01:18:36;5.50;;;4.47;;
15876;SDS011;8037;51.666;7.834;2022-11-21T01:21:03;4.77;;;3.57;;
15876;SDS011;8037;51.666;7.834;2022-11-21T01:23:36;5.00;;;4.27;;
15876;SDS011;8037;51.666;7.834;2022-11-21T01:26:05;4.20;;;3.93;;
15876;SDS011;8037;51.666;7.834;2022-11-21T01:28:32;5.03;;;4.53;;
15876;SDS011;8037;51.666;7.834;2022-11-21T01:31:05;6.47;;;4.80;;
15876;SDS011;8037;51.666;7.834;2022-11-21T01:33:35;3.60;;;3.30;;
15876;SDS011;8037;51.666;7.834;2022-11-21T01:36:20;4.33;;;4.00;;
15876;SDS011;8037;51.666;7.834;2022-11-21T01:38:47;13.00;;;3.70;;
15876;SDS011;8037;51.666;7.834;2022-11-21T01:41:18;3.50;;;3.30;;
15876;SDS011;8037;51.666;7.834;2022-11-21T01:43:49;5.47;;;4.07;;
15876;SDS011;8037;51.666;7.834;2022-11-21T01:46:21;5.90;;;4.80;;
15876;SDS011;8037;51.666;7.834;2022-11-21T01:54:13;5.47;;;5.07;;
15876;SDS011;8037;51.666;7.834;2022-11-21T01:56:50;6.50;;;4.67;;
15876;SDS011;8037;51.666;7.834;2022-11-21T01:59:32;6.03;;;4.50;;
15876;SDS011;8037;51.666;7.834;2022-11-21T02:02:03;5.40;;;4.70;;
15876;SDS011;8037;51.666;7.834;2022-11-21T02:04:32;7.57;;;4.03;;
15876;SDS011;8037;51.666;7.834;2022-11-21T02:06:59;5.73;;;4.10;;
15876;SDS011;8037;51.666;7.834;2022-11-21T02:09:26;4.40;;;4.00;;
15876;SDS011;8037;51.666;7.834;2022-11-21T02:11:55;8.90;;;5.30;;
15876;SDS011;8037;51.666;7.834;2022-11-21T02:14:25;5.33;;;3.50;;
15876;SDS011;8037;51.666;7.834;2022-11-21T02:16:52;5.17;;;4.67;;
15876;SDS011;8037;51.666;7.834;2022-11-21T02:19:24;6.97;;;5.60;;
15876;SDS011;8037;51.666;7.834;2022-11-21T02:21:59;6.93;;;5.77;;
15876;SDS011;8037;51.666;7.834;2022-11-21T02:24:38;8.53;;;4.47;;
15876;SDS011;8037;51.666;7.834;2022-11-21T02:27:10;8.80;;;4.47;;
15876;SDS011;8037;51.666;7.834;2022-11-21T02:29:37;5.57;;;3.97;;
15876;SDS011;8037;51.666;7.834;2022-11-21T02:32:04;6.27;;;4.17;;
15876;SDS011;8037;51.666;7.834;2022-11-21T02:34:30;5.60;;;4.30;;
15876;SDS011;8037;51.666;7.834;2022-11-21T02:36:56;7.23;;;5.13;;
15876;SDS011;8037;51.666;7.834;2022-11-21T02:39:28;9.07;;;5.57;;
15876;SDS011;8037;51.666;7.834;2022-11-21T02:47:08;6.47;;;4.70;;
15876;SDS011;8037;51.666;7.834;2022-11-21T02:49:39;5.80;;;4.80;;
15876;SDS011;8037;51.666;7.834;2022-11-21T02:52:11;9.90;;;4.90;;
15876;SDS011;8037;51.666;7.834;2022-11-21T02:54:37;7.13;;;5.07;;
15876;SDS011;8037;51.666;7.834;2022-11-21T02:57:02;5.77;;;5.33;;
15876;SDS011;8037;51.666;7.834;2022-11-21T02:59:28;6.90;;;6.07;;
15876;SDS011;8037;51.666;7.834;2022-11-21T03:01:53;7.30;;;4.13;;
15876;SDS011;8037;51.666;7.834;2022-11-21T03:04:23;5.50;;;5.03;;
15876;SDS011;8037;51.666;7.834;2022-11-21T03:06:49;7.90;;;4.77;;
15876;SDS011;8037;51.666;7.834;2022-11-21T03:09:15;9.83;;;6.07;;
15876;SDS011;8037;51.666;7.834;2022-11-21T03:11:41;5.40;;;4.90;;
15876;SDS011;8037;51.666;7.834;2022-11-21T03:14:07;16.73;;;5.30;;
15876;SDS011;8037;51.666;7.834;2022-11-21T03:16:33;6.73;;;5.90;;
15876;SDS011;8037;51.666;7.834;2022-11-21T03:18:59;6.97;;;6.00;;
15876;SDS011;8037;51.666;7.834;2022-11-21T03:21:25;10.70;;;7.27;;
15876;SDS011;8037;51.666;7.834;2022-11-21T03:23:51;8.67;;;6.30;;
15876;SDS011;8037;51.666;7.834;2022-11-21T03:26:16;8.43;;;5.97;;
15876;SDS011;8037;51.666;7.834;2022-11-21T03:28:42;7.03;;;5.33;;
15876;SDS011;8037;51.666;7.834;2022-11-21T03:31:07;6.93;;;5.83;;
15876;SDS011;8037;51.666;7.834;2022-11-21T03:33:33;11.37;;;6.57;;
15876;SDS011;8037;51.666;7.834;2022-11-21T03:35:59;9.27;;;6.23;;
15876;SDS011;8037;51.666;7.834;2022-11-21T03:38:25;7.57;;;5.17;;
15876;SDS011;8037;51.666;7.834;2022-11-21T03:40:51;12.20;;;7.60;;
15876;SDS011;8037;51.666;7.834;2022-11-21T03:43:17;11.23;;;7.33;;
15876;SDS011;8037;51.666;7.834;2022-11-21T03:45:46;5.57;;;4.27;;
15876;SDS011;8037;51.666;7.834;2022-11-21T03:48:12;9.80;;;5.80;;
15876;SDS011;8037;51.666;7.834;2022-11-21T03:50:41;10.00;;;6.57;;
15876;SDS011;8037;51.666;7.834;2022-11-21T03:53:07;7.60;;;6.90;;
15876;SDS011;8037;51.666;7.834;2022-11-21T03:55:32;9.47;;;5.83;;
15876;SDS011;8037;51.666;7.834;2022-11-21T03:57:58;11.00;;;7.43;;
15876;SDS011;8037;51.666;7.834;2022-11-21T04:00:24;12.70;;;7.33;;
15876;SDS011;8037;51.666;7.834;2022-11-21T04:02:50;11.87;;;7.57;;
15876;SDS011;8037;51.666;7.834;2022-11-21T04:05:16;15.17;;;8.23;;
15876;SDS011;8037;51.666;7.834;2022-11-21T04:07:42;7.80;;;5.40;;
15876;SDS011;8037;51.666;7.834;2022-11-21T04:10:08;11.73;;;6.43;;
15876;SDS011;8037;51.666;7.834;2022-11-21T04:12:34;15.53;;;8.60;;
15876;SDS011;8037;51.666;7.834;2022-11-21T04:15:00;7.90;;;5.70;;
15876;SDS011;8037;51.666;7.834;2022-11-21T04:17:26;10.87;;;7.80;;
15876;SDS011;8037;51.666;7.834;2022-11-21T04:19:52;10.30;;;5.90;;
15876;SDS011;8037;51.666;7.834;2022-11-21T04:22:18;7.40;;;5.33;;
15876;SDS011;8037;51.666;7.834;2022-11-21T04:24:44;11.90;;;7.30;;
15876;SDS011;8037;51.666;7.834;2022-11-21T04:27:09;8.43;;;6.60;;
15876;SDS011;8037;51.666;7.834;2022-11-21T04:29:35;11.13;;;7.20;;
15876;SDS011;8037;51.666;7.834;2022-11-21T04:32:00;5.57;;;5.00;;
15876;SDS011;8037;51.666;7.834;2022-11-21T04:34:27;11.23;;;6.33;;
15876;SDS011;8037;51.666;7.834;2022-11-21T04:36:53;11.90;;;6.70;;
15876;SDS011;8037;51.666;7.834;2022-11-21T04:39:19;10.80;;;6.10;;
15876;SDS011;8037;51.666;7.834;2022-11-21T04:41:44;9.13;;;6.63;;
15876;SDS011;8037;51.666;7.834;2022-11-21T04:44:10;10.97;;;6.73;;
15876;SDS011;8037;51.666;7.834;2022-11-21T04:46:36;12.20;;;6.83;;
15876;SDS011;8037;51.666;7.834;2022-11-21T04:49:02;7.53;;;6.33;;
15876;SDS011;8037;51.666;7.834;2022-11-21T04:51:28;6.97;;;6.20;;
15876;SDS011;8037;51.666;7.834;2022-11-21T04:53:54;15.07;;;5.83;;
15876;SDS011;8037;51.666;7.834;2022-11-21T04:56:20;13.13;;;6.80;;
15876;SDS011;8037;51.666;7.834;2022-11-21T04:58:46;12.23;;;7.53;;
15876;SDS011;8037;51.666;7.834;2022-11-21T05:01:11;10.20;;;6.93;;
15876;SDS011;8037;51.666;7.834;2022-11-21T05:03:37;13.80;;;7.23;;
15876;SDS011;8037;51.666;7.834;2022-11-21T05:06:02;9.03;;;6.23;;
15876;SDS011;8037;51.666;7.834;2022-11-21T05:08:28;10.93;;;7.60;;
15876;SDS011;8037;51.666;7.834;2022-11-21T05:10:54;12.10;;;6.73;;
15876;SDS011;8037;51.666;7.834;2022-11-21T05:13:39;12.80;;;7.43;;
15876;SDS011;8037;51.666;7.834;2022-11-21T05:16:05;11.80;;;7.57;;
15876;SDS011;8037;51.666;7.834;2022-11-21T05:18:31;13.87;;;6.40;;
15876;SDS011;8037;51.666;7.834;2022-11-21T05:20:57;8.83;;;6.47;;
15876;SDS011;8037;51.666;7.834;2022-11-21T05:23:22;11.77;;;7.23;;
15876;SDS011;8037;51.666;7.834;2022-11-21T05:25:48;15.20;;;8.47;;
15876;SDS011;8037;51.666;7.834;2022-11-21T05:28:14;15.10;;;7.67;;
15876;SDS011;8037;51.666;7.834;2022-11-21T05:30:40;12.27;;;6.67;;
15876;SDS011;8037;51.666;7.834;2022-11-21T05:33:06;24.00;;;8.43;;
15876;SDS011;8037;51.666;7.834;2022-11-21T05:35:32;11.10;;;8.00;;
15876;SDS011;8037;51.666;7.834;2022-11-21T05:37:57;8.37;;;7.50;;
15876;SDS011;8037;51.666;7.834;2022-11-21T05:40:24;18.57;;;9.20;;
15876;SDS011;8037;51.666;7.834;2022-11-21T05:42:50;6.83;;;5.70;;
15876;SDS011;8037;51.666;7.834;2022-11-21T05:45:34;8.80;;;6.80;;
15876;SDS011;8037;51.666;7.834;2022-11-21T05:48:00;17.23;;;8.43;;
15876;SDS011;8037;51.666;7.834;2022-11-21T05:50:31;11.00;;;7.93;;
15876;SDS011;8037;51.666;7.834;2022-11-21T05:52:59;13.53;;;8.37;;
15876;SDS011;8037;51.666;7.834;2022-11-21T05:55:26;11.97;;;8.27;;
15876;SDS011;8037;51.666;7.834;2022-11-21T05:57:52;12.57;;;7.20;;
15876;SDS011;8037;51.666;7.834;2022-11-21T06:00:18;13.50;;;8.23;;
15876;SDS011;8037;51.666;7.834;2022-11-21T06:02:44;10.23;;;6.77;;
15876;SDS011;8037;51.666;7.834;2022-11-21T06:05:29;9.93;;;5.83;;
15876;SDS011;8037;51.666;7.834;2022-11-21T06:07:54;14.67;;;6.93;;
15876;SDS011;8037;51.666;7.834;2022-11-21T06:10:20;7.33;;;6.63;;
15876;SDS011;8037;51.666;7.834;2022-11-21T06:12:46;7.60;;;5.97;;
15876;SDS011;8037;51.666;7.834;2022-11-21T06:15:12;17.60;;;7.53;;
15876;SDS011;8037;51.666;7.834;2022-11-21T06:17:37;12.20;;;6.53;;
15876;SDS011;8037;51.666;7.834;2022-11-21T06:20:04;13.30;;;7.00;;
15876;SDS011;8037;51.666;7.834;2022-11-21T06:22:30;8.00;;;6.23;;
15876;SDS011;8037;51.666;7.834;2022-11-21T06:24:55;11.10;;;7.20;;
15876;SDS011;8037;51.666;7.834;2022-11-21T06:27:21;9.33;;;6.20;;
15876;SDS011;8037;51.666;7.834;2022-11-21T06:29:47;10.27;;;6.47;;
15876;SDS011;8037;51.666;7.834;2022-11-21T06:32:13;12.63;;;6.93;;
15876;SDS011;8037;51.666;7.834;2022-11-21T06:34:39;12.80;;;8.30;;
15876;SDS011;8037;51.666;7.834;2022-11-21T06:37:05;14.90;;;7.57;;
15876;SDS011;8037;51.666;7.834;2022-11-21T06:39:31;7.40;;;5.87;;
15876;SDS011;8037;51.666;7.834;2022-11-21T06:41:57;7.93;;;6.10;;
15876;SDS011;8037;51.666;7.834;2022-11-21T06:44:23;19.47;;;5.87;;
15876;SDS011;8037;51.666;7.834;2022-11-21T06:46:49;11.40;;;8.23;;
15876;SDS011;8037;51.666;7.834;2022-11-21T06:49:15;9.07;;;7.20;;
15876;SDS011;8037;51.666;7.834;2022-11-21T06:51:41;10.30;;;7.33;;
15876;SDS011;8037;51.666;7.834;2022-11-21T06:54:07;11.10;;;7.03;;
15876;SDS011;8037;51.666;7.834;2022-11-21T06:56:33;7.07;;;5.50;;
15876;SDS011;8037;51.666;7.834;2022-11-21T06:58:59;15.70;;;8.33;;
15876;SDS011;8037;51.666;7.834;2022-11-21T07:01:25;12.07;;;7.00;;
15876;SDS011;8037;51.666;7.834;2022-11-21T07:03:51;10.50;;;7.27;;
15876;SDS011;8037;51.666;7.834;2022-11-21T07:06:16;7.93;;;5.97;;
15876;SDS011;8037;51.666;7.834;2022-11-21T07:08:42;10.00;;;6.93;;
15876;SDS011;8037;51.666;7.834;2022-11-21T07:11:09;10.20;;;7.33;;
15876;SDS011;8037;51.666;7.834;2022-11-21T07:13:36;7.93;;;5.33;;
15876;SDS011;8037;51.666;7.834;2022-11-21T07:16:03;10.53;;;7.63;;
15876;SDS011;8037;51.666;7.834;2022-11-21T07:18:31;9.70;;;6.10;;
15876;SDS011;8037;51.666;7.834;2022-11-21T07:20:57;8.97;;;6.43;;
15876;SDS011;8037;51.666;7.834;2022-11-21T07:23:23;6.17;;;5.57;;
15876;SDS011;8037;51.666;7.834;2022-11-21T07:25:49;10.20;;;6.80;;
15876;SDS011;8037;51.666;7.834;2022-11-21T07:28:15;13.87;;;8.70;;
15876;SDS011;8037;51.666;7.834;2022-11-21T07:30:41;14.10;;;6.77;;
15876;SDS011;8037;51.666;7.834;2022-11-21T07:33:07;12.03;;;6.90;;
15876;SDS011;8037;51.666;7.834;2022-11-21T07:35:34;11.27;;;6.83;;
15876;SDS011;8037;51.666;7.834;2022-11-21T07:38:00;12.67;;;7.87;;
15876;SDS011;8037;51.666;7.834;2022-11-21T07:40:26;8.90;;;6.93;;
15876;SDS011;8037;51.666;7.834;2022-11-21T07:42:52;10.10;;;5.97;;
15876;SDS011;8037;51.666;7.834;2022-11-21T07:45:18;8.40;;;6.23;;
15876;SDS011;8037;51.666;7.834;2022-11-21T07:47:44;11.47;;;7.83;;
15876;SDS011;8037;51.666;7.834;2022-11-21T07:50:10;12.70;;;7.50;;
15876;SDS011;8037;51.666;7.834;2022-11-21T07:52:37;11.73;;;7.23;;
15876;SDS011;8037;51.666;7.834;2022-11-21T07:55:03;11.10;;;7.27;;
15876;SDS011;8037;51.666;7.834;2022-11-21T07:57:29;14.80;;;8.80;;
15876;SDS011;8037;51.666;7.834;2022-11-21T07:59:55;9.00;;;7.30;;
15876;SDS011;8037;51.666;7.834;2022-11-21T08:02:25;8.97;;;5.23;;
15876;SDS011;8037;51.666;7.834;2022-11-21T08:04:52;9.53;;;7.33;;
15876;SDS011;8037;51.666;7.834;2022-11-21T08:07:18;12.10;;;8.07;;
15876;SDS011;8037;51.666;7.834;2022-11-21T08:09:45;14.87;;;7.97;;
15876;SDS011;8037;51.666;7.834;2022-11-21T08:12:11;10.03;;;5.90;;
15876;SDS011;8037;51.666;7.834;2022-11-21T08:14:37;10.20;;;7.37;;
15876;SDS011;8037;51.666;7.834;2022-11-21T08:17:03;12.67;;;8.00;;
15876;SDS011;8037;51.666;7.834;2022-11-21T08:19:30;11.93;;;6.30;;
15876;SDS011;8037;51.666;7.834;2022-11-21T08:21:56;7.87;;;6.00;;
15876;SDS011;8037;51.666;7.834;2022-11-21T08:24:22;13.60;;;7.73;;
15876;SDS011;8037;51.666;7.834;2022-11-21T08:26:48;13.20;;;7.70;;
15876;SDS011;8037;51.666;7.834;2022-11-21T08:29:14;13.60;;;8.20;;
15876;SDS011;8037;51.666;7.834;2022-11-21T08:31:40;9.77;;;7.80;;
15876;SDS011;8037;51.666;7.834;2022-11-21T08:34:07;14.27;;;7.60;;
15876;SDS011;8037;51.666;7.834;2022-11-21T08:36:33;13.17;;;8.10;;
15876;SDS011;8037;51.666;7.834;2022-11-21T08:38:59;10.63;;;7.53;;
15876;SDS011;8037;51.666;7.834;2022-11-21T08:41:25;11.57;;;7.37;;
15876;SDS011;8037;51.666;7.834;2022-11-21T08:44:10;11.40;;;6.77;;
15876;SDS011;8037;51.666;7.834;2022-11-21T08:46:36;11.57;;;7.63;;
15876;SDS011;8037;51.666;7.834;2022-11-21T08:49:02;8.80;;;6.63;;
15876;SDS011;8037;51.666;7.834;2022-11-21T08:51:28;15.57;;;9.00;;
15876;SDS011;8037;51.666;7.834;2022-11-21T08:53:54;9.97;;;6.47;;
15876;SDS011;8037;51.666;7.834;2022-11-21T08:56:20;11.00;;;7.50;;
15876;SDS011;8037;51.666;7.834;2022-11-21T08:58:46;9.90;;;7.13;;
15876;SDS011;8037;51.666;7.834;2022-11-21T09:01:12;12.23;;;8.07;;
15876;SDS011;8037;51.666;7.834;2022-11-21T09:03:38;9.23;;;7.37;;
15876;SDS011;8037;51.666;7.834;2022-11-21T09:06:04;12.20;;;7.83;;
15876;SDS011;8037;51.666;7.834;2022-11-21T09:08:30;10.20;;;6.70;;
15876;SDS011;8037;51.666;7.834;2022-11-21T09:10:55;12.97;;;7.90;;
15876;SDS011;8037;51.666;7.834;2022-11-21T09:13:21;9.80;;;6.93;;
15876;SDS011;8037;51.666;7.834;2022-11-21T09:15:47;12.93;;;8.57;;
15876;SDS011;8037;51.666;7.834;2022-11-21T09:18:32;10.20;;;7.53;;
15876;SDS011;8037;51.666;7.834;2022-11-21T09:20:58;10.03;;;6.60;;
15876;SDS011;8037;51.666;7.834;2022-11-21T09:23:24;15.20;;;7.03;;
15876;SDS011;8037;51.666;7.834;2022-11-21T09:25:50;9.13;;;5.90;;
15876;SDS011;8037;51.666;7.834;2022-11-21T09:28:16;19.63;;;9.07;;
15876;SDS011;8037;51.666;7.834;2022-11-21T09:30:41;9.30;;;7.57;;
15876;SDS011;8037;51.666;7.834;2022-11-21T09:33:11;14.70;;;9.60;;
15876;SDS011;8037;51.666;7.834;2022-11-21T09:35:39;8.80;;;6.50;;
15876;SDS011;8037;51.666;7.834;2022-11-21T09:38:05;13.73;;;7.40;;
15876;SDS011;8037;51.666;7.834;2022-11-21T09:40:32;13.67;;;8.20;;
15876;SDS011;8037;51.666;7.834;2022-11-21T09:43:02;16.87;;;8.60;;
15876;SDS011;8037;51.666;7.834;2022-11-21T09:45:36;12.83;;;6.83;;
15876;SDS011;8037;51.666;7.834;2022-11-21T09:48:11;9.57;;;6.40;;
15876;SDS011;8037;51.666;7.834;2022-11-21T09:50:59;8.90;;;7.40;;
15876;SDS011;8037;51.666;7.834;2022-11-21T09:53:34;13.60;;;7.37;;
15876;SDS011;8037;51.666;7.834;2022-11-21T09:56:17;10.60;;;6.93;;
15876;SDS011;8037;51.666;7.834;2022-11-21T09:58:48;8.33;;;6.23;;
15876;SDS011;8037;51.666;7.834;2022-11-21T10:01:31;10.47;;;7.10;;
15876;SDS011;8037;51.666;7.834;2022-11-21T10:03:57;9.63;;;7.23;;
15876;SDS011;8037;51.666;7.834;2022-11-21T10:06:27;10.10;;;8.37;;
15876;SDS011;8037;51.666;7.834;2022-11-21T10:09:06;15.13;;;9.17;;
15876;SDS011;8037;51.666;7.834;2022-11-21T10:12:09;9.80;;;6.23;;
15876;SDS011;8037;51.666;7.834;2022-11-21T10:20:53;8.90;;;7.30;;
15876;SDS011;8037;51.666;7.834;2022-11-21T10:26:14;9.47;;;7.30;;
15876;SDS011;8037;51.666;7.834;2022-11-21T10:29:05;7.77;;;6.97;;
15876;SDS011;8037;51.666;7.834;2022-11-21T10:31:35;11.00;;;7.40;;
15876;SDS011;8037;51.666;7.834;2022-11-21T10:34:02;11.23;;;7.03;;
15876;SDS011;8037;51.666;7.834;2022-11-21T10:36:42;11.97;;;8.50;;
15876;SDS011;8037;51.666;7.834;2022-11-21T10:41:57;11.60;;;7.23;;
15876;SDS011;8037;51.666;7.834;2022-11-21T10:44:29;10.93;;;7.63;;
15876;SDS011;8037;51.666;7.834;2022-11-21T10:49:40;14.70;;;8.63;;
15876;SDS011;8037;51.666;7.834;2022-11-21T10:52:11;10.93;;;7.40;;
15876;SDS011;8037;51.666;7.834;2022-11-21T10:57:27;9.03;;;6.43;;
15876;SDS011;8037;51.666;7.834;2022-11-21T10:59:58;11.30;;;6.97;;
15876;SDS011;8037;51.666;7.834;2022-11-21T11:02:36;12.27;;;8.00;;
15876;SDS011;8037;51.666;7.834;2022-11-21T11:07:57;14.50;;;7.97;;
15876;SDS011;8037;51.666;7.834;2022-11-21T11:10:36;11.70;;;7.60;;
15876;SDS011;8037;51.666;7.834;2022-11-21T11:13:13;9.20;;;6.10;;
15876;SDS011;8037;51.666;7.834;2022-11-21T11:16:14;9.47;;;6.87;;
15876;SDS011;8037;51.666;7.834;2022-11-21T11:18:44;13.77;;;7.50;;
15876;SDS011;8037;51.666;7.834;2022-11-21T11:21:58;12.60;;;8.00;;
15876;SDS011;8037;51.666;7.834;2022-11-21T11:24:26;9.80;;;6.37;;
15876;SDS011;8037;51.666;7.834;2022-11-21T11:26:54;12.13;;;7.80;;
15876;SDS011;8037;51.666;7.834;2022-11-21T11:29:26;9.87;;;6.97;;
15876;SDS011;8037;51.666;7.834;2022-11-21T11:34:23;16.17;;;7.27;;
15876;SDS011;8037;51.666;7.834;2022-11-21T11:47:58;10.63;;;7.30;;
15876;SDS011;8037;51.666;7.834;2022-11-21T11:50:33;11.80;;;7.77;;
15876;SDS011;8037;51.666;7.834;2022-11-21T11:53:19;9.27;;;6.53;;
15876;SDS011;8037;51.666;7.834;2022-11-21T11:58:19;15.70;;;8.00;;
15876;SDS011;8037;51.666;7.834;2022-11-21T12:00:56;13.03;;;8.27;;
15876;SDS011;8037;51.666;7.834;2022-11-21T12:03:25;14.97;;;7.57;;
15876;SDS011;8037;51.666;7.834;2022-11-21T12:06:07;10.03;;;6.07;;
15876;SDS011;8037;51.666;7.834;2022-11-21T12:17:34;11.53;;;6.80;;
15876;SDS011;8037;51.666;7.834;2022-11-21T12:20:13;10.57;;;7.43;;
15876;SDS011;8037;51.666;7.834;2022-11-21T12:22:51;16.10;;;8.23;;
15876;SDS011;8037;51.666;7.834;2022-11-21T12:25:20;19.43;;;7.77;;
15876;SDS011;8037;51.666;7.834;2022-11-21T12:27:50;19.63;;;7.73;;
15876;SDS011;8037;51.666;7.834;2022-11-21T12:41:29;18.33;;;7.10;;
15876;SDS011;8037;51.666;7.834;2022-11-21T12:44:25;10.90;;;7.20;;
15876;SDS011;8037;51.666;7.834;2022-11-21T12:47:12;10.17;;;6.73;;
15876;SDS011;8037;51.666;7.834;2022-11-21T12:50:03;15.63;;;7.00;;
15876;SDS011;8037;51.666;7.834;2022-11-21T12:53:21;12.47;;;5.97;;
15876;SDS011;8037;51.666;7.834;2022-11-21T12:59:19;14.50;;;6.50;;
15876;SDS011;8037;51.666;7.834;2022-11-21T13:04:45;12.87;;;6.10;;
15876;SDS011;8037;51.666;7.834;2022-11-21T13:07:13;11.30;;;8.17;;
15876;SDS011;8037;51.666;7.834;2022-11-21T13:09:40;15.33;;;7.53;;
15876;SDS011;8037;51.666;7.834;2022-11-21T13:12:12;13.03;;;6.70;;
15876;SDS011;8037;51.666;7.834;2022-11-21T13:14:55;17.70;;;5.83;;
15876;SDS011;8037;51.666;7.834;2022-11-21T13:17:47;12.50;;;5.70;;
15876;SDS011;8037;51.666;7.834;2022-11-21T13:20:31;12.27;;;6.30;;
15876;SDS011;8037;51.666;7.834;2022-11-21T13:23:43;10.47;;;7.03;;
15876;SDS011;8037;51.666;7.834;2022-11-21T13:28:50;10.03;;;6.83;;
15876;SDS011;8037;51.666;7.834;2022-11-21T13:31:31;18.50;;;6.90;;
15876;SDS011;8037;51.666;7.834;2022-11-21T13:33:58;9.60;;;6.17;;
15876;SDS011;8037;51.666;7.834;2022-11-21T13:47:28;10.53;;;6.97;;
15876;SDS011;8037;51.666;7.834;2022-11-21T13:49:56;12.20;;;7.00;;
15876;SDS011;8037;51.666;7.834;2022-11-21T13:57:39;10.67;;;7.47;;
15876;SDS011;8037;51.666;7.834;2022-11-21T14:00:17;10.13;;;6.73;;
15876;SDS011;8037;51.666;7.834;2022-11-21T14:08:24;9.73;;;6.67;;
15876;SDS011;8037;51.666;7.834;2022-11-21T14:10:51;12.73;;;5.97;;
15876;SDS011;8037;51.666;7.834;2022-11-21T14:13:27;15.17;;;7.60;;
15876;SDS011;8037;51.666;7.834;2022-11-21T14:18:43;12.17;;;6.33;;
15876;SDS011;8037;51.666;7.834;2022-11-21T14:21:20;11.10;;;6.90;;
15876;SDS011;8037;51.666;7.834;2022-11-21T14:23:50;9.10;;;7.07;;
15876;SDS011;8037;51.666;7.834;2022-11-21T14:26:33;6.30;;;5.30;;
15876;SDS011;8037;51.666;7.834;2022-11-21T14:29:24;10.93;;;6.90;;
15876;SDS011;8037;51.666;7.834;2022-11-21T14:31:51;7.13;;;5.77;;
15876;SDS011;8037;51.666;7.834;2022-11-21T14:34:27;10.17;;;7.80;;
15876;SDS011;8037;51.666;7.834;2022-11-21T14:36:56;9.53;;;6.47;;
15876;SDS011;8037;51.666;7.834;2022-11-21T14:39:27;14.03;;;7.20;;
15876;SDS011;8037;51.666;7.834;2022-11-21T14:41:59;8.23;;;6.23;;
15876;SDS011;8037;51.666;7.834;2022-11-21T14:44:27;10.83;;;7.17;;
15876;SDS011;8037;51.666;7.834;2022-11-21T14:47:13;10.23;;;7.30;;
15876;SDS011;8037;51.666;7.834;2022-11-21T14:49:47;8.93;;;6.60;;
15876;SDS011;8037;51.666;7.834;2022-11-21T14:52:30;12.83;;;6.50;;
15876;SDS011;8037;51.666;7.834;2022-11-21T14:54:58;9.60;;;6.50;;
15876;SDS011;8037;51.666;7.834;2022-11-21T14:57:29;10.70;;;7.40;;
15876;SDS011;8037;51.666;7.834;2022-11-21T15:00:06;7.97;;;7.00;;
15876;SDS011;8037;51.666;7.834;2022-11-21T15:02:33;12.30;;;6.43;;
15876;SDS011;8037;51.666;7.834;2022-11-21T15:05:00;9.80;;;6.83;;
15876;SDS011;8037;51.666;7.834;2022-11-21T15:07:39;8.53;;;7.47;;
15876;SDS011;8037;51.666;7.834;2022-11-21T15:10:10;14.43;;;7.60;;
15876;SDS011;8037;51.666;7.834;2022-11-21T15:12:46;11.07;;;7.70;;
15876;SDS011;8037;51.666;7.834;2022-11-21T15:15:36;14.17;;;7.33;;
15876;SDS011;8037;51.666;7.834;2022-11-21T15:18:10;11.20;;;7.30;;
15876;SDS011;8037;51.666;7.834;2022-11-21T15:20:48;12.40;;;6.20;;
15876;SDS011;8037;51.666;7.834;2022-11-21T15:25:51;12.90;;;7.07;;
15876;SDS011;8037;51.666;7.834;2022-11-21T15:28:17;7.13;;;6.07;;
15876;SDS011;8037;51.666;7.834;2022-11-21T15:30:43;7.03;;;6.33;;
15876;SDS011;8037;51.666;7.834;2022-11-21T15:33:17;8.57;;;6.10;;
15876;SDS011;8037;51.666;7.834;2022-11-21T15:35:51;9.23;;;6.90;;
15876;SDS011;8037;51.666;7.834;2022-11-21T15:46:13;13.83;;;5.97;;
15876;SDS011;8037;51.666;7.834;2022-11-21T15:48:45;7.67;;;6.30;;
15876;SDS011;8037;51.666;7.834;2022-11-21T15:51:15;9.23;;;5.90;;
15876;SDS011;8037;51.666;7.834;2022-11-21T15:53:42;10.20;;;6.70;;
15876;SDS011;8037;51.666;7.834;2022-11-21T15:56:09;5.43;;;4.97;;
15876;SDS011;8037;51.666;7.834;2022-11-21T15:58:36;10.70;;;6.70;;
15876;SDS011;8037;51.666;7.834;2022-11-21T16:01:02;10.77;;;6.10;;
15876;SDS011;8037;51.666;7.834;2022-11-21T16:03:28;8.00;;;5.60;;
15876;SDS011;8037;51.666;7.834;2022-11-21T16:05:54;9.60;;;6.40;;
15876;SDS011;8037;51.666;7.834;2022-11-21T16:08:20;7.73;;;5.10;;
15876;SDS011;8037;51.666;7.834;2022-11-21T16:10:46;7.63;;;5.80;;
15876;SDS011;8037;51.666;7.834;2022-11-21T16:13:11;8.43;;;6.07;;
15876;SDS011;8037;51.666;7.834;2022-11-21T16:15:38;15.27;;;6.90;;
15876;SDS011;8037;51.666;7.834;2022-11-21T16:18:03;9.90;;;6.57;;
15876;SDS011;8037;51.666;7.834;2022-11-21T16:20:29;7.80;;;5.93;;
15876;SDS011;8037;51.666;7.834;2022-11-21T16:22:55;6.67;;;5.87;;
15876;SDS011;8037;51.666;7.834;2022-11-21T16:25:21;10.93;;;5.53;;
15876;SDS011;8037;51.666;7.834;2022-11-21T16:27:47;6.93;;;5.67;;
15876;SDS011;8037;51.666;7.834;2022-11-21T16:30:13;8.90;;;6.20;;
15876;SDS011;8037;51.666;7.834;2022-11-21T16:32:38;7.93;;;5.57;;
15876;SDS011;8037;51.666;7.834;2022-11-21T16:35:04;8.93;;;6.80;;
15876;SDS011;8037;51.666;7.834;2022-11-21T16:37:31;6.47;;;4.83;;
15876;SDS011;8037;51.666;7.834;2022-11-21T16:39:57;5.63;;;4.87;;
15876;SDS011;8037;51.666;7.834;2022-11-21T16:42:22;11.30;;;5.80;;
15876;SDS011;8037;51.666;7.834;2022-11-21T16:44:49;5.03;;;4.70;;
15876;SDS011;8037;51.666;7.834;2022-11-21T16:47:15;6.03;;;5.20;;
15876;SDS011;8037;51.666;7.834;2022-11-21T16:49:41;6.20;;;5.60;;
15876;SDS011;8037;51.666;7.834;2022-11-21T16:52:11;7.70;;;3.60;;
15876;SDS011;8037;51.666;7.834;2022-11-21T16:54:37;4.10;;;3.73;;
15876;SDS011;8037;51.666;7.834;2022-11-21T16:57:04;7.83;;;5.23;;
15876;SDS011;8037;51.666;7.834;2022-11-21T16:59:30;7.17;;;4.90;;